Terminal Aerodrome Forecast
Issued by NWS

Home | Current Version | Previous Version | Text Only | Print | Product List | Glossary On
Versions: 1 2 3 4 5 6 7 8 9 10 11 12 13 14 15 16
000
FTUS44 KBMX 281156 CCA
TAFEET
TAF COR
KEET 281156Z 2812/2912 22005KT P6SM BKN007 BKN012 OVC060
     FM281400 25008KT P6SM BKN012 BKN040
     FM281700 23010KT P6SM BKN040
     FM282100 22010KT P6SM BKN040 PROB30 2821/2824 6SM -TSRA
      BKN025CB
     FM290100 19006KT P6SM VCTS BKN040CB=

USA.gov is the U.S. government's official web portal to all federal, state and local government web resources and services.